sensor_id;sensor_type;location;lat;lon;timestamp;P1;durP1;ratioP1;P2;durP2;ratioP2
27213;SDS011;14723;55.814;37.460;2023-08-24T00:01:04;12.82;;;8.90;;
27213;SDS011;14723;55.814;37.460;2023-08-24T00:04:10;16.05;;;8.40;;
27213;SDS011;14723;55.814;37.460;2023-08-24T00:07:16;11.35;;;8.05;;
27213;SDS011;14723;55.814;37.460;2023-08-24T00:10:22;12.95;;;8.40;;
27213;SDS011;14723;55.814;37.460;2023-08-24T00:13:30;13.35;;;8.07;;
27213;SDS011;14723;55.814;37.460;2023-08-24T00:16:35;11.25;;;7.10;;
27213;SDS011;14723;55.814;37.460;2023-08-24T00:19:41;10.00;;;6.95;;
27213;SDS011;14723;55.814;37.460;2023-08-24T00:22:46;12.23;;;7.65;;
27213;SDS011;14723;55.814;37.460;2023-08-24T00:25:51;9.18;;;5.80;;
27213;SDS011;14723;55.814;37.460;2023-08-24T00:29:00;13.80;;;7.97;;
27213;SDS011;14723;55.814;37.460;2023-08-24T00:32:06;8.43;;;5.32;;
27213;SDS011;14723;55.814;37.460;2023-08-24T00:35:12;7.18;;;5.78;;
27213;SDS011;14723;55.814;37.460;2023-08-24T00:38:17;10.18;;;5.38;;
27213;SDS011;14723;55.814;37.460;2023-08-24T00:41:24;5.80;;;4.50;;
27213;SDS011;14723;55.814;37.460;2023-08-24T00:44:31;6.47;;;4.30;;
27213;SDS011;14723;55.814;37.460;2023-08-24T00:47:37;8.55;;;4.50;;
27213;SDS011;14723;55.814;37.460;2023-08-24T00:50:45;6.63;;;4.45;;
27213;SDS011;14723;55.814;37.460;2023-08-24T00:53:54;5.75;;;4.15;;
27213;SDS011;14723;55.814;37.460;2023-08-24T00:56:59;5.15;;;4.18;;
27213;SDS011;14723;55.814;37.460;2023-08-24T01:00:08;5.80;;;4.22;;
27213;SDS011;14723;55.814;37.460;2023-08-24T01:03:15;7.72;;;4.47;;
27213;SDS011;14723;55.814;37.460;2023-08-24T01:06:21;5.60;;;3.88;;
27213;SDS011;14723;55.814;37.460;2023-08-24T01:09:26;6.07;;;4.60;;
27213;SDS011;14723;55.814;37.460;2023-08-24T01:12:34;5.43;;;4.20;;
27213;SDS011;14723;55.814;37.460;2023-08-24T01:15:45;8.70;;;4.38;;
27213;SDS011;14723;55.814;37.460;2023-08-24T01:18:54;5.43;;;3.67;;
27213;SDS011;14723;55.814;37.460;2023-08-24T01:22:00;5.75;;;4.05;;
27213;SDS011;14723;55.814;37.460;2023-08-24T01:25:10;6.78;;;4.28;;
27213;SDS011;14723;55.814;37.460;2023-08-24T01:28:19;6.03;;;4.32;;
27213;SDS011;14723;55.814;37.460;2023-08-24T01:31:25;6.22;;;4.28;;
27213;SDS011;14723;55.814;37.460;2023-08-24T01:34:31;4.75;;;3.97;;
27213;SDS011;14723;55.814;37.460;2023-08-24T01:37:37;7.20;;;4.40;;
27213;SDS011;14723;55.814;37.460;2023-08-24T01:40:45;7.03;;;4.45;;
27213;SDS011;14723;55.814;37.460;2023-08-24T01:43:56;5.53;;;4.10;;
27213;SDS011;14723;55.814;37.460;2023-08-24T01:47:04;8.80;;;4.78;;
27213;SDS011;14723;55.814;37.460;2023-08-24T01:50:10;7.13;;;4.70;;
27213;SDS011;14723;55.814;37.460;2023-08-24T01:53:15;6.00;;;3.75;;
27213;SDS011;14723;55.814;37.460;2023-08-24T01:56:22;7.75;;;4.43;;
27213;SDS011;14723;55.814;37.460;2023-08-24T01:59:30;6.03;;;4.03;;
27213;SDS011;14723;55.814;37.460;2023-08-24T02:02:35;5.28;;;4.03;;
27213;SDS011;14723;55.814;37.460;2023-08-24T02:05:41;6.18;;;4.68;;
27213;SDS011;14723;55.814;37.460;2023-08-24T02:08:47;4.32;;;3.72;;
27213;SDS011;14723;55.814;37.460;2023-08-24T02:11:52;4.70;;;3.80;;
27213;SDS011;14723;55.814;37.460;2023-08-24T02:15:01;5.80;;;4.43;;
27213;SDS011;14723;55.814;37.460;2023-08-24T02:18:06;4.35;;;3.72;;
27213;SDS011;14723;55.814;37.460;2023-08-24T02:21:12;5.82;;;4.15;;
27213;SDS011;14723;55.814;37.460;2023-08-24T02:24:18;5.25;;;3.17;;
27213;SDS011;14723;55.814;37.460;2023-08-24T02:27:24;5.18;;;3.67;;
27213;SDS011;14723;55.814;37.460;2023-08-24T02:30:31;10.13;;;4.60;;
27213;SDS011;14723;55.814;37.460;2023-08-24T02:33:37;5.43;;;3.42;;
27213;SDS011;14723;55.814;37.460;2023-08-24T02:36:43;5.68;;;4.20;;
27213;SDS011;14723;55.814;37.460;2023-08-24T02:39:49;4.85;;;3.55;;
27213;SDS011;14723;55.814;37.460;2023-08-24T02:42:55;4.57;;;3.70;;
27213;SDS011;14723;55.814;37.460;2023-08-24T02:46:04;5.60;;;3.67;;
27213;SDS011;14723;55.814;37.460;2023-08-24T02:49:10;6.43;;;3.47;;
27213;SDS011;14723;55.814;37.460;2023-08-24T02:52:18;5.30;;;3.60;;
27213;SDS011;14723;55.814;37.460;2023-08-24T02:55:24;5.00;;;3.55;;
27213;SDS011;14723;55.814;37.460;2023-08-24T02:58:30;8.85;;;3.92;;
27213;SDS011;14723;55.814;37.460;2023-08-24T03:01:38;4.85;;;3.30;;
27213;SDS011;14723;55.814;37.460;2023-08-24T03:04:44;6.40;;;3.47;;
27213;SDS011;14723;55.814;37.460;2023-08-24T03:07:52;6.22;;;3.55;;
27213;SDS011;14723;55.814;37.460;2023-08-24T03:10:57;3.80;;;3.08;;
27213;SDS011;14723;55.814;37.460;2023-08-24T03:14:03;6.00;;;3.83;;
27213;SDS011;14723;55.814;37.460;2023-08-24T03:17:12;6.10;;;4.03;;
27213;SDS011;14723;55.814;37.460;2023-08-24T03:20:18;7.18;;;3.83;;
27213;SDS011;14723;55.814;37.460;2023-08-24T03:23:24;6.70;;;3.88;;
27213;SDS011;14723;55.814;37.460;2023-08-24T03:26:30;4.75;;;3.92;;
27213;SDS011;14723;55.814;37.460;2023-08-24T03:29:35;4.95;;;3.72;;
27213;SDS011;14723;55.814;37.460;2023-08-24T03:32:44;4.40;;;3.67;;
27213;SDS011;14723;55.814;37.460;2023-08-24T03:35:49;6.93;;;4.05;;
27213;SDS011;14723;55.814;37.460;2023-08-24T03:38:55;5.78;;;4.25;;
27213;SDS011;14723;55.814;37.460;2023-08-24T03:42:03;5.38;;;3.85;;
27213;SDS011;14723;55.814;37.460;2023-08-24T03:45:09;7.88;;;4.35;;
27213;SDS011;14723;55.814;37.460;2023-08-24T03:48:18;7.47;;;4.68;;
27213;SDS011;14723;55.814;37.460;2023-08-24T03:51:23;7.65;;;4.78;;
27213;SDS011;14723;55.814;37.460;2023-08-24T03:54:31;9.05;;;5.15;;
27213;SDS011;14723;55.814;37.460;2023-08-24T03:57:36;5.75;;;4.53;;
27213;SDS011;14723;55.814;37.460;2023-08-24T04:00:43;7.68;;;5.28;;
27213;SDS011;14723;55.814;37.460;2023-08-24T04:03:52;7.00;;;5.38;;
27213;SDS011;14723;55.814;37.460;2023-08-24T04:07:00;7.22;;;4.90;;
27213;SDS011;14723;55.814;37.460;2023-08-24T04:10:07;8.18;;;5.88;;
27213;SDS011;14723;55.814;37.460;2023-08-24T04:13:13;7.40;;;5.10;;
27213;SDS011;14723;55.814;37.460;2023-08-24T04:16:18;11.27;;;6.22;;
27213;SDS011;14723;55.814;37.460;2023-08-24T04:19:26;8.85;;;5.53;;
27213;SDS011;14723;55.814;37.460;2023-08-24T04:22:32;6.40;;;4.93;;
27213;SDS011;14723;55.814;37.460;2023-08-24T04:25:39;8.27;;;5.47;;
27213;SDS011;14723;55.814;37.460;2023-08-24T04:28:45;6.93;;;5.30;;
27213;SDS011;14723;55.814;37.460;2023-08-24T04:31:51;7.75;;;5.25;;
27213;SDS011;14723;55.814;37.460;2023-08-24T04:34:59;8.85;;;6.00;;
27213;SDS011;14723;55.814;37.460;2023-08-24T04:38:05;7.82;;;5.78;;
27213;SDS011;14723;55.814;37.460;2023-08-24T04:41:13;8.85;;;6.07;;
27213;SDS011;14723;55.814;37.460;2023-08-24T04:44:18;6.43;;;4.68;;
27213;SDS011;14723;55.814;37.460;2023-08-24T04:47:24;10.82;;;7.50;;
27213;SDS011;14723;55.814;37.460;2023-08-24T04:50:32;9.82;;;5.97;;
27213;SDS011;14723;55.814;37.460;2023-08-24T04:53:37;9.07;;;5.38;;
27213;SDS011;14723;55.814;37.460;2023-08-24T04:56:43;8.98;;;6.05;;
27213;SDS011;14723;55.814;37.460;2023-08-24T04:59:48;9.57;;;5.63;;
27213;SDS011;14723;55.814;37.460;2023-08-24T05:02:54;9.40;;;5.57;;
27213;SDS011;14723;55.814;37.460;2023-08-24T05:06:02;10.60;;;6.32;;
27213;SDS011;14723;55.814;37.460;2023-08-24T05:09:07;8.63;;;6.07;;
27213;SDS011;14723;55.814;37.460;2023-08-24T05:12:13;8.77;;;5.70;;
27213;SDS011;14723;55.814;37.460;2023-08-24T05:15:18;11.82;;;5.85;;
27213;SDS011;14723;55.814;37.460;2023-08-24T05:18:24;9.50;;;7.00;;
27213;SDS011;14723;55.814;37.460;2023-08-24T05:21:32;10.73;;;6.28;;
27213;SDS011;14723;55.814;37.460;2023-08-24T05:24:37;10.77;;;6.55;;
27213;SDS011;14723;55.814;37.460;2023-08-24T05:27:42;13.13;;;6.47;;
27213;SDS011;14723;55.814;37.460;2023-08-24T05:30:48;10.50;;;6.43;;
27213;SDS011;14723;55.814;37.460;2023-08-24T05:33:53;9.80;;;6.30;;
27213;SDS011;14723;55.814;37.460;2023-08-24T05:37:01;8.77;;;6.03;;
27213;SDS011;14723;55.814;37.460;2023-08-24T05:40:07;11.10;;;6.70;;
27213;SDS011;14723;55.814;37.460;2023-08-24T05:43:13;8.70;;;5.57;;
27213;SDS011;14723;55.814;37.460;2023-08-24T05:46:19;8.50;;;6.20;;
27213;SDS011;14723;55.814;37.460;2023-08-24T05:49:24;12.77;;;6.45;;
27213;SDS011;14723;55.814;37.460;2023-08-24T05:52:33;9.65;;;6.15;;
27213;SDS011;14723;55.814;37.460;2023-08-24T05:55:38;9.15;;;6.38;;
27213;SDS011;14723;55.814;37.460;2023-08-24T05:58:43;10.75;;;7.03;;
27213;SDS011;14723;55.814;37.460;2023-08-24T06:01:48;10.40;;;6.65;;
27213;SDS011;14723;55.814;37.460;2023-08-24T06:04:53;9.02;;;6.97;;
27213;SDS011;14723;55.814;37.460;2023-08-24T06:08:02;12.13;;;7.25;;
27213;SDS011;14723;55.814;37.460;2023-08-24T06:11:07;12.43;;;6.82;;
27213;SDS011;14723;55.814;37.460;2023-08-24T06:14:12;14.23;;;7.55;;
27213;SDS011;14723;55.814;37.460;2023-08-24T06:17:18;12.43;;;6.97;;
27213;SDS011;14723;55.814;37.460;2023-08-24T06:20:23;10.85;;;7.30;;
27213;SDS011;14723;55.814;37.460;2023-08-24T06:23:31;13.02;;;7.22;;
27213;SDS011;14723;55.814;37.460;2023-08-24T06:26:36;14.00;;;7.32;;
27213;SDS011;14723;55.814;37.460;2023-08-24T06:29:42;12.55;;;6.97;;
27213;SDS011;14723;55.814;37.460;2023-08-24T06:32:47;9.32;;;6.35;;
27213;SDS011;14723;55.814;37.460;2023-08-24T06:35:53;9.07;;;6.65;;
27213;SDS011;14723;55.814;37.460;2023-08-24T06:39:01;11.45;;;6.32;;
27213;SDS011;14723;55.814;37.460;2023-08-24T06:42:07;10.27;;;5.97;;
27213;SDS011;14723;55.814;37.460;2023-08-24T06:45:12;8.90;;;5.93;;
27213;SDS011;14723;55.814;37.460;2023-08-24T06:48:19;12.00;;;6.22;;
27213;SDS011;14723;55.814;37.460;2023-08-24T06:51:24;13.35;;;6.13;;
27213;SDS011;14723;55.814;37.460;2023-08-24T06:54:32;9.43;;;5.38;;
27213;SDS011;14723;55.814;37.460;2023-08-24T06:57:38;9.00;;;5.40;;
27213;SDS011;14723;55.814;37.460;2023-08-24T07:00:43;8.18;;;5.80;;
27213;SDS011;14723;55.814;37.460;2023-08-24T07:03:48;12.45;;;5.43;;
27213;SDS011;14723;55.814;37.460;2023-08-24T07:06:54;12.50;;;5.80;;
27213;SDS011;14723;55.814;37.460;2023-08-24T07:10:02;13.27;;;6.35;;
27213;SDS011;14723;55.814;37.460;2023-08-24T07:13:08;7.78;;;5.43;;
27213;SDS011;14723;55.814;37.460;2023-08-24T07:16:14;10.60;;;5.63;;
27213;SDS011;14723;55.814;37.460;2023-08-24T07:19:19;7.38;;;5.20;;
27213;SDS011;14723;55.814;37.460;2023-08-24T07:22:25;12.55;;;6.20;;
27213;SDS011;14723;55.814;37.460;2023-08-24T07:25:34;11.00;;;5.85;;
27213;SDS011;14723;55.814;37.460;2023-08-24T07:28:39;9.82;;;6.00;;
27213;SDS011;14723;55.814;37.460;2023-08-24T07:31:44;10.48;;;6.28;;
27213;SDS011;14723;55.814;37.460;2023-08-24T07:34:50;8.23;;;5.80;;
27213;SDS011;14723;55.814;37.460;2023-08-24T07:37:55;8.85;;;6.05;;
27213;SDS011;14723;55.814;37.460;2023-08-24T07:41:04;11.18;;;5.88;;
27213;SDS011;14723;55.814;37.460;2023-08-24T07:44:09;10.48;;;6.45;;
27213;SDS011;14723;55.814;37.460;2023-08-24T07:47:15;10.90;;;6.22;;
27213;SDS011;14723;55.814;37.460;2023-08-24T07:50:21;8.52;;;5.20;;
27213;SDS011;14723;55.814;37.460;2023-08-24T07:53:27;8.23;;;5.28;;
27213;SDS011;14723;55.814;37.460;2023-08-24T07:56:37;10.57;;;5.23;;
27213;SDS011;14723;55.814;37.460;2023-08-24T07:59:43;8.88;;;5.20;;
27213;SDS011;14723;55.814;37.460;2023-08-24T08:02:49;7.82;;;5.35;;
27213;SDS011;14723;55.814;37.460;2023-08-24T08:05:54;10.70;;;5.47;;
27213;SDS011;14723;55.814;37.460;2023-08-24T08:09:00;8.95;;;4.95;;
27213;SDS011;14723;55.814;37.460;2023-08-24T08:12:09;10.35;;;5.22;;
27213;SDS011;14723;55.814;37.460;2023-08-24T08:15:14;7.60;;;4.50;;
27213;SDS011;14723;55.814;37.460;2023-08-24T08:18:19;7.80;;;4.07;;
27213;SDS011;14723;55.814;37.460;2023-08-24T08:21:25;9.98;;;4.65;;
27213;SDS011;14723;55.814;37.460;2023-08-24T08:24:30;7.05;;;4.68;;
27213;SDS011;14723;55.814;37.460;2023-08-24T08:27:38;8.13;;;4.75;;
27213;SDS011;14723;55.814;37.460;2023-08-24T08:30:43;12.10;;;5.25;;
27213;SDS011;14723;55.814;37.460;2023-08-24T08:33:49;8.23;;;4.30;;
27213;SDS011;14723;55.814;37.460;2023-08-24T08:36:54;10.88;;;4.75;;
27213;SDS011;14723;55.814;37.460;2023-08-24T08:40:01;8.77;;;4.40;;
27213;SDS011;14723;55.814;37.460;2023-08-24T08:43:10;10.02;;;4.40;;
27213;SDS011;14723;55.814;37.460;2023-08-24T08:46:15;6.57;;;4.78;;
27213;SDS011;14723;55.814;37.460;2023-08-24T08:49:21;8.68;;;4.60;;
27213;SDS011;14723;55.814;37.460;2023-08-24T08:52:26;12.82;;;4.45;;
27213;SDS011;14723;55.814;37.460;2023-08-24T08:55:32;8.02;;;4.43;;
27213;SDS011;14723;55.814;37.460;2023-08-24T08:58:40;8.95;;;4.85;;
27213;SDS011;14723;55.814;37.460;2023-08-24T09:01:46;10.88;;;5.75;;
27213;SDS011;14723;55.814;37.460;2023-08-24T09:04:52;10.50;;;4.47;;
27213;SDS011;14723;55.814;37.460;2023-08-24T09:07:58;8.63;;;5.18;;
27213;SDS011;14723;55.814;37.460;2023-08-24T09:11:05;10.90;;;4.65;;
27213;SDS011;14723;55.814;37.460;2023-08-24T09:14:13;10.82;;;5.05;;
27213;SDS011;14723;55.814;37.460;2023-08-24T09:17:21;9.77;;;5.00;;
27213;SDS011;14723;55.814;37.460;2023-08-24T09:23:31;9.38;;;4.85;;
27213;SDS011;14723;55.814;37.460;2023-08-24T09:26:37;6.80;;;4.45;;
27213;SDS011;14723;55.814;37.460;2023-08-24T09:29:49;8.68;;;4.50;;
27213;SDS011;14723;55.814;37.460;2023-08-24T09:32:55;16.70;;;5.30;;
27213;SDS011;14723;55.814;37.460;2023-08-24T09:36:00;6.38;;;4.53;;
27213;SDS011;14723;55.814;37.460;2023-08-24T09:39:06;9.82;;;4.65;;
27213;SDS011;14723;55.814;37.460;2023-08-24T09:42:13;6.53;;;4.22;;
27213;SDS011;14723;55.814;37.460;2023-08-24T09:45:21;10.40;;;4.72;;
27213;SDS011;14723;55.814;37.460;2023-08-24T09:51:32;6.88;;;4.13;;
27213;SDS011;14723;55.814;37.460;2023-08-24T09:54:38;7.53;;;4.20;;
27213;SDS011;14723;55.814;37.460;2023-08-24T09:57:44;11.73;;;4.40;;
27213;SDS011;14723;55.814;37.460;2023-08-24T10:00:53;7.28;;;5.15;;
27213;SDS011;14723;55.814;37.460;2023-08-24T10:03:59;7.15;;;4.30;;
27213;SDS011;14723;55.814;37.460;2023-08-24T10:07:06;6.72;;;4.35;;
27213;SDS011;14723;55.814;37.460;2023-08-24T10:13:23;10.95;;;4.82;;
27213;SDS011;14723;55.814;37.460;2023-08-24T10:16:31;6.07;;;4.22;;
27213;SDS011;14723;55.814;37.460;2023-08-24T10:19:37;6.43;;;3.80;;
27213;SDS011;14723;55.814;37.460;2023-08-24T10:22:43;4.68;;;3.60;;
27213;SDS011;14723;55.814;37.460;2023-08-24T10:25:49;5.35;;;3.80;;
27213;SDS011;14723;55.814;37.460;2023-08-24T10:28:57;6.10;;;3.65;;
27213;SDS011;14723;55.814;37.460;2023-08-24T10:32:05;4.22;;;3.45;;
27213;SDS011;14723;55.814;37.460;2023-08-24T10:35:10;5.05;;;3.30;;
27213;SDS011;14723;55.814;37.460;2023-08-24T10:38:24;7.72;;;3.88;;
27213;SDS011;14723;55.814;37.460;2023-08-24T10:41:36;4.97;;;3.35;;
27213;SDS011;14723;55.814;37.460;2023-08-24T10:44:51;4.72;;;3.58;;
27213;SDS011;14723;55.814;37.460;2023-08-24T10:47:59;6.78;;;3.58;;
27213;SDS011;14723;55.814;37.460;2023-08-24T10:51:17;4.95;;;3.75;;
27213;SDS011;14723;55.814;37.460;2023-08-24T10:54:29;3.63;;;3.25;;
27213;SDS011;14723;55.814;37.460;2023-08-24T10:57:35;5.63;;;3.60;;
27213;SDS011;14723;55.814;37.460;2023-08-24T11:00:49;5.05;;;3.45;;
27213;SDS011;14723;55.814;37.460;2023-08-24T11:03:57;3.83;;;3.25;;
27213;SDS011;14723;55.814;37.460;2023-08-24T11:07:03;5.80;;;3.10;;
27213;SDS011;14723;55.814;37.460;2023-08-24T11:10:12;4.72;;;3.40;;
27213;SDS011;14723;55.814;37.460;2023-08-24T11:13:18;6.97;;;3.10;;
27213;SDS011;14723;55.814;37.460;2023-08-24T11:19:51;7.38;;;3.80;;
27213;SDS011;14723;55.814;37.460;2023-08-24T11:22:58;5.30;;;4.13;;
27213;SDS011;14723;55.814;37.460;2023-08-24T11:26:03;3.33;;;2.88;;
27213;SDS011;14723;55.814;37.460;2023-08-24T11:29:08;4.40;;;3.00;;
27213;SDS011;14723;55.814;37.460;2023-08-24T11:32:14;4.47;;;3.33;;
27213;SDS011;14723;55.814;37.460;2023-08-24T11:35:22;4.75;;;2.95;;
27213;SDS011;14723;55.814;37.460;2023-08-24T11:38:37;5.10;;;3.05;;
27213;SDS011;14723;55.814;37.460;2023-08-24T11:41:43;9.15;;;6.03;;
27213;SDS011;14723;55.814;37.460;2023-08-24T11:44:50;4.97;;;3.10;;
27213;SDS011;14723;55.814;37.460;2023-08-24T11:47:57;4.93;;;2.97;;
27213;SDS011;14723;55.814;37.460;2023-08-24T11:51:06;6.22;;;3.35;;
27213;SDS011;14723;55.814;37.460;2023-08-24T11:54:14;3.25;;;2.92;;
27213;SDS011;14723;55.814;37.460;2023-08-24T11:57:20;3.55;;;2.90;;
27213;SDS011;14723;55.814;37.460;2023-08-24T12:00:27;5.82;;;2.60;;
27213;SDS011;14723;55.814;37.460;2023-08-24T12:03:32;3.95;;;2.40;;
27213;SDS011;14723;55.814;37.460;2023-08-24T12:06:40;7.50;;;2.88;;
27213;SDS011;14723;55.814;37.460;2023-08-24T12:15:59;4.10;;;2.70;;
27213;SDS011;14723;55.814;37.460;2023-08-24T12:19:07;4.53;;;2.58;;
27213;SDS011;14723;55.814;37.460;2023-08-24T12:22:16;3.03;;;2.30;;
27213;SDS011;14723;55.814;37.460;2023-08-24T12:25:24;3.55;;;2.40;;
27213;SDS011;14723;55.814;37.460;2023-08-24T12:28:30;3.20;;;2.05;;
27213;SDS011;14723;55.814;37.460;2023-08-24T12:31:35;2.85;;;2.08;;
27213;SDS011;14723;55.814;37.460;2023-08-24T12:34:41;6.50;;;2.50;;
27213;SDS011;14723;55.814;37.460;2023-08-24T12:37:49;5.65;;;2.60;;
27213;SDS011;14723;55.814;37.460;2023-08-24T12:40:54;3.65;;;2.17;;
27213;SDS011;14723;55.814;37.460;2023-08-24T12:43:59;3.13;;;2.13;;
27213;SDS011;14723;55.814;37.460;2023-08-24T12:47:07;2.88;;;2.17;;
27213;SDS011;14723;55.814;37.460;2023-08-24T12:50:13;4.07;;;2.40;;
27213;SDS011;14723;55.814;37.460;2023-08-24T12:53:21;5.35;;;2.40;;
27213;SDS011;14723;55.814;37.460;2023-08-24T12:56:26;3.60;;;2.22;;
27213;SDS011;14723;55.814;37.460;2023-08-24T12:59:31;3.00;;;2.25;;
27213;SDS011;14723;55.814;37.460;2023-08-24T13:02:36;4.50;;;2.53;;
27213;SDS011;14723;55.814;37.460;2023-08-24T13:05:42;4.57;;;2.70;;
27213;SDS011;14723;55.814;37.460;2023-08-24T13:08:50;4.10;;;2.08;;
27213;SDS011;14723;55.814;37.460;2023-08-24T13:15:00;3.65;;;2.10;;
27213;SDS011;14723;55.814;37.460;2023-08-24T13:18:07;2.97;;;2.10;;
27213;SDS011;14723;55.814;37.460;2023-08-24T13:21:12;3.50;;;1.80;;
27213;SDS011;14723;55.814;37.460;2023-08-24T13:24:22;3.60;;;1.83;;
27213;SDS011;14723;55.814;37.460;2023-08-24T13:27:28;4.28;;;2.42;;
27213;SDS011;14723;55.814;37.460;2023-08-24T13:30:33;6.95;;;1.88;;
27213;SDS011;14723;55.814;37.460;2023-08-24T13:33:38;4.10;;;1.80;;
27213;SDS011;14723;55.814;37.460;2023-08-24T13:36:44;3.67;;;2.17;;
27213;SDS011;14723;55.814;37.460;2023-08-24T13:39:52;4.93;;;2.20;;
27213;SDS011;14723;55.814;37.460;2023-08-24T13:42:57;4.00;;;2.58;;
27213;SDS011;14723;55.814;37.460;2023-08-24T13:46:03;2.58;;;2.10;;
27213;SDS011;14723;55.814;37.460;2023-08-24T13:49:08;3.45;;;2.25;;
27213;SDS011;14723;55.814;37.460;2023-08-24T13:52:26;4.15;;;1.70;;
27213;SDS011;14723;55.814;37.460;2023-08-24T13:55:34;3.72;;;2.08;;
27213;SDS011;14723;55.814;37.460;2023-08-24T13:58:40;3.47;;;1.90;;
27213;SDS011;14723;55.814;37.460;2023-08-24T14:01:46;5.70;;;2.38;;
27213;SDS011;14723;55.814;37.460;2023-08-24T14:04:51;5.30;;;2.08;;
27213;SDS011;14723;55.814;37.460;2023-08-24T14:07:56;15.02;;;2.63;;
27213;SDS011;14723;55.814;37.460;2023-08-24T14:11:04;4.72;;;2.40;;
27213;SDS011;14723;55.814;37.460;2023-08-24T14:14:10;3.50;;;2.33;;
27213;SDS011;14723;55.814;37.460;2023-08-24T14:17:16;5.95;;;2.70;;
27213;SDS011;14723;55.814;37.460;2023-08-24T14:20:21;4.88;;;2.15;;
27213;SDS011;14723;55.814;37.460;2023-08-24T14:23:27;3.33;;;2.20;;
27213;SDS011;14723;55.814;37.460;2023-08-24T14:26:35;4.45;;;2.45;;
27213;SDS011;14723;55.814;37.460;2023-08-24T14:29:41;4.68;;;2.28;;
27213;SDS011;14723;55.814;37.460;2023-08-24T14:32:47;3.20;;;2.30;;
27213;SDS011;14723;55.814;37.460;2023-08-24T14:35:52;8.27;;;2.88;;
27213;SDS011;14723;55.814;37.460;2023-08-24T14:38:58;4.75;;;2.47;;
27213;SDS011;14723;55.814;37.460;2023-08-24T14:42:06;7.63;;;2.65;;
